Observations for PALERMO POINT RAISI, Italy (LICJ)

LICJ 160720Z 18003KT CAVOK 16/13 Q1018  
LICJ 160650Z 13004KT 9999 FEW035 14/11 Q1017
LICJ 160620Z 18003KT 9999 FEW040 13/11 Q1017
LICJ 160550Z 17004KT CAVOK 13/11 Q1017  
LICJ 160520Z 19004KT CAVOK 14/11 Q1017  
LICJ 160450Z 17005KT 9999 FEW030 13/11 Q1017
LICJ 160420Z 17003KT 9999 FEW030 13/11 Q1017
LICJ 160350Z 17003KT 9999 FEW030 14/11 Q1017
LICJ 160320Z 17003KT 9999 FEW030 14/11 Q1018
LICJ 160250Z 19006KT 9999 FEW030 14/11 Q1018
LICJ 160220Z 16005KT 140V200 9999 FEW030 14/11 Q1018
LICJ 160150Z 16005KT 9999 FEW030 13/11 Q1018
LICJ 160120Z 10004KT 9999 FEW030 15/11 Q1018
LICJ 160050Z 05005KT 9999 FEW030 15/11 Q1018
LICJ 160020Z 07006KT 9999 FEW030 15/11 Q1018
LICJ 152350Z 09002KT 9999 FEW030 15/11 Q1018
LICJ 152320Z 17003KT 140V200 9999 FEW030 15/11 Q1018
LICJ 152250Z 18004KT 9999 FEW030 14/11 Q1019
LICJ 152220Z 16005KT 9999 FEW030 14/11 Q1019
LICJ 152150Z 14003KT 100V160 9999 FEW030 14/12 Q1019
LICJ 152120Z 12002KT 9999 FEW030 14/12 Q1019
LICJ 152050Z 15002KT 9999 FEW030 14/11 Q1019
LICJ 152020Z 14003KT 9999 FEW030 14/11 Q1019
LICJ 151950Z 14004KT 9999 FEW030 14/11 Q1019
LICJ 151920Z VRB02KT CAVOK 15/12 Q1019  
LICJ 151850Z 12004KT 080V150 CAVOK 15/12 Q1019  
LICJ 151820Z 08007KT CAVOK 15/12 Q1019  
LICJ 151750Z 07007KT CAVOK 16/12 Q1019  
LICJ 151720Z 07007KT CAVOK 15/12 Q1019  
LICJ 151650Z 07006KT CAVOK 16/12 Q1019  
LICJ 151620Z 05006KT CAVOK 16/12 Q1019  
LICJ 151550Z 05007KT CAVOK 17/12 Q1019  
LICJ 151520Z 05006KT CAVOK 18/12 Q1019  
LICJ 151450Z 06004KT CAVOK 18/12 Q1019  
LICJ 151420Z 05006KT CAVOK 18/12 Q1020  
LICJ 151350Z 04004KT CAVOK 19/12 Q1020  
LICJ 151320Z 36004KT CAVOK 19/12 Q1020  
LICJ 151250Z 33003KT 300V360 CAVOK 18/11 Q1020  
LICJ 151220Z 35002KT CAVOK 19/12 Q1021  
LICJ 151150Z 32003KT 290V360 CAVOK 18/13 Q1021  
LICJ 151120Z 34003KT CAVOK 18/13 Q1021  
LICJ 151050Z 34004KT CAVOK 18/13 Q1022  
LICJ 151020Z 33004KT CAVOK 18/12 Q1022  
LICJ 150950Z VRB02KT CAVOK 18/12 Q1022  
LICJ 150920Z VRB02KT CAVOK 17/12 Q1022  
LICJ 150850Z 24002KT CAVOK 17/12 Q1022  
LICJ 150820Z VRB01KT CAVOK 17/11 Q1022  
LICJ 150750Z 18002KT CAVOK 15/11 Q1022  
LICJ 150720Z 19003KT CAVOK 13/10 Q1022  
LICJ 150650Z 17005KT CAVOK 11/10 Q1022